Time;durP1;ratioP1;P1;durP2;ratioP2;P2;SDS_P1;SDS_P2;PMS_P1;PMS_P2;Temp;Humidity;BMP_temperature;BMP_pressure;BME280_temperature;BME280_humidity;BME280_pressure;Samples;Min_cycle;Max_cycle;Signal;HPM_P1;HPM_P2
2023/06/18 00:00:50;;;;;;;;;;;24.90;48.40;;;;;;5080032;28;19908;-54
2023/06/18 00:03:16;;;;;;;;;;;24.90;48.40;;;;;;5077744;28;19919;-54
2023/06/18 00:05:41;;;;;;;;;;;24.90;48.50;;;;;;5073798;28;20050;-55
2023/06/18 00:08:07;;;;;;;;;;;24.90;48.50;;;;;;5071218;28;19916;-54
2023/06/18 00:10:32;;;;;;;;;;;24.90;48.50;;;;;;5072131;28;19916;-54
2023/06/18 00:12:57;;;;;;;;;;;24.90;48.50;;;;;;5074116;28;19909;-54
2023/06/18 00:15:23;;;;;;;;;;;24.90;48.50;;;;;;5073644;28;19961;-55
2023/06/18 00:17:48;;;;;;;;;;;24.90;48.50;;;;;;5068657;28;19920;-56
2023/06/18 00:20:14;;;;;;;;;;;24.90;48.50;;;;;;5064652;28;19943;-56
2023/06/18 00:22:39;;;;;;;;;;;24.90;48.50;;;;;;5074205;28;19969;-56
2023/06/18 00:25:05;;;;;;;;;;;24.90;48.50;;;;;;5072831;28;19959;-56
2023/06/18 00:27:31;;;;;;;;;;;24.90;48.50;;;;;;5070588;28;19966;-56
2023/06/18 00:29:56;;;;;;;;;;;24.90;48.50;;;;;;5071975;28;20310;-56
2023/06/18 00:32:22;;;;;;;;;;;24.90;48.50;;;;;;5071433;28;19919;-56
2023/06/18 00:34:48;;;;;;;;;;;24.90;48.50;;;;;;5079499;28;19912;-56
2023/06/18 00:37:13;;;;;;;;;;;24.90;48.50;;;;;;5093673;28;20291;-56
2023/06/18 00:39:38;;;;;;;;;;;24.80;48.40;;;;;;5088494;28;19997;-56
2023/06/18 00:42:07;;;;;;;;;;;24.80;48.40;;;;;;5073932;28;19913;-56
2023/06/18 00:44:33;;;;;;;;;;;24.90;48.50;;;;;;5073293;28;19970;-56
2023/06/18 00:46:59;;;;;;;;;;;24.80;48.40;;;;;;5073576;28;19913;-56
2023/06/18 00:49:26;;;;;;;;;;;24.80;48.40;;;;;;5069735;28;20015;-56
2023/06/18 00:51:52;;;;;;;;;;;24.80;48.40;;;;;;5069457;28;19912;-56
2023/06/18 00:54:17;;;;;;;;;;;24.80;48.40;;;;;;5055596;28;19920;-55
2023/06/18 00:56:50;;;;;;;;;;;24.80;48.40;;;;;;5054303;28;19998;-56
2023/06/18 00:59:22;;;;;;;;;;;24.80;48.40;;;;;;5080061;28;19979;-56
2023/06/18 01:01:48;;;;;;;;;;;24.80;48.50;;;;;;5073069;28;19978;-56
2023/06/18 01:04:14;;;;;;;;;;;24.80;49.20;;;;;;5063466;28;19917;-56
2023/06/18 01:06:39;;;;;;;;;;;24.80;48.60;;;;;;5097232;28;19920;-56
2023/06/18 01:09:05;;;;;;;;;;;24.70;48.50;;;;;;5105001;28;20403;-56
2023/06/18 01:11:37;;;;;;;;;;;24.80;48.70;;;;;;5072250;28;19912;-55
2023/06/18 01:14:09;;;;;;;;;;;24.70;48.60;;;;;;5074699;28;19923;-56
2023/06/18 01:16:36;;;;;;;;;;;24.70;48.50;;;;;;5072825;28;20275;-55
2023/06/18 01:19:01;;;;;;;;;;;24.80;48.70;;;;;;5053260;28;20016;-55
2023/06/18 01:21:27;;;;;;;;;;;24.80;48.70;;;;;;5057298;28;20007;-55
2023/06/18 01:24:01;;;;;;;;;;;24.80;48.70;;;;;;5104039;28;19928;-55
2023/06/18 01:26:27;;;;;;;;;;;24.80;48.70;;;;;;5100027;28;19921;-56
2023/06/18 01:28:52;;;;;;;;;;;24.70;48.70;;;;;;5092439;28;19980;-55
2023/06/18 01:31:22;;;;;;;;;;;24.70;48.70;;;;;;5070235;28;19912;-56
2023/06/18 01:33:51;;;;;;;;;;;24.70;48.80;;;;;;5091100;28;19916;-55
2023/06/18 01:36:26;;;;;;;;;;;24.70;48.80;;;;;;5063334;28;19948;-55
2023/06/18 01:38:52;;;;;;;;;;;24.70;48.80;;;;;;5097926;28;19966;-55
2023/06/18 01:41:18;;;;;;;;;;;24.70;48.80;;;;;;5069894;28;19912;-54
2023/06/18 01:43:54;;;;;;;;;;;24.70;48.90;;;;;;5071468;28;19924;-55
2023/06/18 01:46:23;;;;;;;;;;;24.70;48.90;;;;;;5068280;28;20004;-56
2023/06/18 01:48:53;;;;;;;;;;;24.70;48.90;;;;;;5072239;28;20294;-55
2023/06/18 01:51:19;;;;;;;;;;;24.70;49.00;;;;;;5070931;28;19920;-55
2023/06/18 01:53:45;;;;;;;;;;;24.60;48.90;;;;;;5071472;28;20292;-56
2023/06/18 01:56:13;;;;;;;;;;;24.70;48.90;;;;;;5060699;28;19920;-55
2023/06/18 01:58:42;;;;;;;;;;;24.70;49.00;;;;;;5062468;28;20016;-55
2023/06/18 02:01:09;;;;;;;;;;;24.60;49.50;;;;;;5071361;28;19956;-55
2023/06/18 02:03:35;;;;;;;;;;;24.60;49.00;;;;;;5075754;28;19912;-56
2023/06/18 02:06:00;;;;;;;;;;;24.60;49.00;;;;;;5078112;28;19909;-55
2023/06/18 02:08:26;;;;;;;;;;;24.60;49.00;;;;;;5071875;28;19912;-55
2023/06/18 02:10:51;;;;;;;;;;;24.60;49.00;;;;;;5071231;28;19976;-55
2023/06/18 02:13:17;;;;;;;;;;;24.60;49.00;;;;;;5102820;28;19921;-54
2023/06/18 02:15:43;;;;;;;;;;;24.60;49.00;;;;;;5071931;28;19909;-55
2023/06/18 02:18:09;;;;;;;;;;;24.60;49.00;;;;;;5072480;28;20284;-54
2023/06/18 02:20:35;;;;;;;;;;;24.60;49.10;;;;;;5071784;28;20285;-54
2023/06/18 02:23:00;;;;;;;;;;;24.50;49.00;;;;;;5071956;28;19916;-54
2023/06/18 02:25:32;;;;;;;;;;;24.50;49.10;;;;;;5069007;28;19913;-54
2023/06/18 02:28:03;;;;;;;;;;;24.50;49.10;;;;;;5061232;28;19919;-54
2023/06/18 02:30:29;;;;;;;;;;;24.50;49.30;;;;;;5071873;28;20003;-54
2023/06/18 02:32:55;;;;;;;;;;;24.50;49.30;;;;;;5071926;28;19951;-55
2023/06/18 02:35:21;;;;;;;;;;;24.50;49.30;;;;;;5103284;28;20066;-55
2023/06/18 02:37:46;;;;;;;;;;;24.50;49.30;;;;;;5069737;28;20011;-56
2023/06/18 02:40:14;;;;;;;;;;;24.50;49.30;;;;;;5070021;28;20007;-56
2023/06/18 02:42:46;;;;;;;;;;;24.50;49.30;;;;;;5071489;28;19913;-56
2023/06/18 02:45:13;;;;;;;;;;;24.50;49.40;;;;;;5071738;28;19920;-57
2023/06/18 02:47:38;;;;;;;;;;;24.50;49.40;;;;;;5070332;28;19961;-56
2023/06/18 02:50:04;;;;;;;;;;;24.50;49.40;;;;;;5071027;28;19916;-56
2023/06/18 02:52:30;;;;;;;;;;;24.50;49.40;;;;;;5088201;28;19977;-56
2023/06/18 02:54:55;;;;;;;;;;;24.50;49.50;;;;;;5091176;28;19912;-57
2023/06/18 02:57:21;;;;;;;;;;;24.50;49.60;;;;;;5073124;28;19962;-57
2023/06/18 02:59:46;;;;;;;;;;;24.50;49.50;;;;;;5063550;28;20308;-56
2023/06/18 03:02:12;;;;;;;;;;;24.40;49.50;;;;;;5058683;28;19913;-56
2023/06/18 03:04:37;;;;;;;;;;;24.40;49.60;;;;;;5071409;28;20003;-56
2023/06/18 03:07:03;;;;;;;;;;;24.40;49.60;;;;;;5071949;28;19916;-56
2023/06/18 03:09:28;;;;;;;;;;;24.40;49.70;;;;;;5070856;28;20311;-56
2023/06/18 03:11:54;;;;;;;;;;;24.40;49.80;;;;;;5071227;28;20015;-56
2023/06/18 03:14:21;;;;;;;;;;;24.40;49.70;;;;;;5065048;28;19943;-56
2023/06/18 03:16:47;;;;;;;;;;;24.40;49.80;;;;;;5069460;28;19919;-56
2023/06/18 03:19:13;;;;;;;;;;;24.40;49.90;;;;;;5068111;28;19913;-56
2023/06/18 03:21:39;;;;;;;;;;;24.40;49.80;;;;;;5104080;28;20462;-56
2023/06/18 03:24:05;;;;;;;;;;;24.40;49.90;;;;;;5072128;28;20390;-56
2023/06/18 03:26:31;;;;;;;;;;;24.40;50.00;;;;;;5050705;28;19975;-56
2023/06/18 03:28:58;;;;;;;;;;;24.40;50.10;;;;;;5051628;28;19909;-57
2023/06/18 03:31:24;;;;;;;;;;;24.40;50.00;;;;;;5066132;28;19917;-56
2023/06/18 03:33:49;;;;;;;;;;;24.40;50.10;;;;;;5071144;28;19919;-56
2023/06/18 03:36:17;;;;;;;;;;;24.40;50.10;;;;;;5073941;28;20265;-56
2023/06/18 03:38:43;;;;;;;;;;;24.40;50.10;;;;;;5073966;28;20015;-56
2023/06/18 03:41:09;;;;;;;;;;;24.30;50.10;;;;;;5073400;28;19912;-56
2023/06/18 03:43:34;;;;;;;;;;;24.30;50.20;;;;;;5107423;28;19928;-56
2023/06/18 03:46:00;;;;;;;;;;;24.30;50.40;;;;;;5074676;28;19908;-56
2023/06/18 03:48:25;;;;;;;;;;;24.30;50.60;;;;;;5072865;28;19913;-56
2023/06/18 03:50:51;;;;;;;;;;;24.30;50.60;;;;;;5062034;28;19924;-56
2023/06/18 03:53:16;;;;;;;;;;;24.30;50.70;;;;;;5054654;28;19909;-56
2023/06/18 03:55:42;;;;;;;;;;;24.30;50.70;;;;;;5057763;28;19913;-56
2023/06/18 03:58:07;;;;;;;;;;;24.30;50.70;;;;;;5072501;28;19939;-56
2023/06/18 04:00:34;;;;;;;;;;;24.30;50.80;;;;;;5104111;28;20046;-56
2023/06/18 04:02:59;;;;;;;;;;;24.30;50.90;;;;;;5070416;28;19912;-56
2023/06/18 04:05:25;;;;;;;;;;;24.30;50.90;;;;;;5072737;28;19987;-56
2023/06/18 04:07:51;;;;;;;;;;;24.30;51.00;;;;;;5074149;28;20007;-57
2023/06/18 04:10:16;;;;;;;;;;;24.30;50.90;;;;;;5073372;28;19909;-56
2023/06/18 04:12:42;;;;;;;;;;;24.30;50.90;;;;;;5074201;28;19916;-56
2023/06/18 04:15:07;;;;;;;;;;;24.30;50.90;;;;;;5096630;28;19952;-56
2023/06/18 04:17:39;;;;;;;;;;;24.30;51.00;;;;;;5064939;28;20284;-56
2023/06/18 04:20:05;;;;;;;;;;;24.30;51.10;;;;;;5073700;28;19955;-56
2023/06/18 04:22:31;;;;;;;;;;;24.30;51.00;;;;;;5073856;28;20340;-56
2023/06/18 04:24:56;;;;;;;;;;;24.30;51.10;;;;;;5073180;28;19960;-56
2023/06/18 04:27:22;;;;;;;;;;;24.30;51.10;;;;;;5061152;28;20425;-56
2023/06/18 04:29:47;;;;;;;;;;;24.30;51.00;;;;;;5067774;28;20426;-56
2023/06/18 04:32:12;;;;;;;;;;;24.30;51.10;;;;;;5074162;28;20293;-56
2023/06/18 04:34:38;;;;;;;;;;;24.30;51.20;;;;;;5073573;28;19913;-56
2023/06/18 04:37:04;;;;;;;;;;;24.30;51.30;;;;;;5071384;28;19924;-56
2023/06/18 04:39:29;;;;;;;;;;;24.30;51.30;;;;;;5069264;28;19913;-56
2023/06/18 04:41:55;;;;;;;;;;;24.30;51.30;;;;;;5058403;28;19917;-56
2023/06/18 04:44:20;;;;;;;;;;;24.30;51.30;;;;;;5071234;28;19991;-56
2023/06/18 04:46:46;;;;;;;;;;;24.30;51.30;;;;;;5063193;28;19966;-56
2023/06/18 04:49:11;;;;;;;;;;;24.30;51.30;;;;;;5060629;28;19912;-56
2023/06/18 04:51:39;;;;;;;;;;;24.30;51.30;;;;;;5060768;28;19912;-56
2023/06/18 04:54:04;;;;;;;;;;;24.30;51.30;;;;;;5057567;28;20109;-56
2023/06/18 04:56:30;;;;;;;;;;;24.30;52.00;;;;;;5060902;28;20007;-56
2023/06/18 04:58:55;;;;;;;;;;;24.30;51.40;;;;;;5054552;28;20009;-56
2023/06/18 05:01:21;;;;;;;;;;;24.30;51.40;;;;;;5061673;28;19912;-56
2023/06/18 05:03:46;;;;;;;;;;;24.30;51.40;;;;;;5071917;28;19916;-56
2023/06/18 05:06:12;;;;;;;;;;;24.30;51.50;;;;;;5070657;28;19926;-56
2023/06/18 05:08:37;;;;;;;;;;;24.30;51.60;;;;;;5071263;28;19966;-55
2023/06/18 05:11:03;;;;;;;;;;;24.30;51.60;;;;;;5068654;28;19912;-56
2023/06/18 05:13:28;;;;;;;;;;;24.30;51.60;;;;;;5068073;28;19916;-55
2023/06/18 05:15:54;;;;;;;;;;;24.30;51.60;;;;;;5064564;28;19916;-56
2023/06/18 05:18:20;;;;;;;;;;;24.30;51.60;;;;;;5092616;28;19917;-56
2023/06/18 05:20:45;;;;;;;;;;;24.30;51.80;;;;;;5057019;28;19970;-55
2023/06/18 05:23:11;;;;;;;;;;;24.30;52.00;;;;;;5063892;28;19917;-56
2023/06/18 05:25:37;;;;;;;;;;;24.30;52.10;;;;;;5051796;28;19913;-56
2023/06/18 05:28:03;;;;;;;;;;;24.30;52.20;;;;;;5070245;28;19919;-56
2023/06/18 05:30:28;;;;;;;;;;;24.30;52.20;;;;;;5067502;28;19942;-56
2023/06/18 05:32:54;;;;;;;;;;;24.30;52.20;;;;;;5060363;28;19917;-56
2023/06/18 05:35:19;;;;;;;;;;;24.30;52.10;;;;;;5094079;28;19920;-56
2023/06/18 05:37:45;;;;;;;;;;;24.30;52.30;;;;;;5069343;28;20287;-56
2023/06/18 05:40:11;;;;;;;;;;;24.30;52.30;;;;;;5068234;28;20362;-56
2023/06/18 05:42:39;;;;;;;;;;;24.30;52.50;;;;;;5066214;28;20285;-56
2023/06/18 05:45:05;;;;;;;;;;;24.30;52.50;;;;;;5053214;28;20369;-55
2023/06/18 05:47:30;;;;;;;;;;;24.30;52.60;;;;;;5056392;28;19963;-55
2023/06/18 05:49:56;;;;;;;;;;;24.30;52.50;;;;;;5052170;28;19944;-56
2023/06/18 05:52:21;;;;;;;;;;;24.30;52.50;;;;;;5083399;28;19908;-56
2023/06/18 05:54:47;;;;;;;;;;;24.30;52.60;;;;;;5064682;28;19920;-55
2023/06/18 05:57:13;;;;;;;;;;;24.30;52.70;;;;;;5069214;28;20295;-57
2023/06/18 05:59:39;;;;;;;;;;;24.30;52.70;;;;;;5057994;28;19925;-56
2023/06/18 06:02:05;;;;;;;;;;;24.30;52.70;;;;;;5060810;28;20363;-56
2023/06/18 06:04:30;;;;;;;;;;;24.30;52.70;;;;;;5071935;28;19927;-56
2023/06/18 06:06:55;;;;;;;;;;;24.30;52.70;;;;;;5064423;28;19908;-55
2023/06/18 06:09:21;;;;;;;;;;;24.30;52.80;;;;;;5071678;28;19961;-55
2023/06/18 06:11:46;;;;;;;;;;;24.40;52.80;;;;;;5065187;28;19919;-55
2023/06/18 06:14:12;;;;;;;;;;;24.30;53.00;;;;;;5104952;28;20311;-56
2023/06/18 06:16:37;;;;;;;;;;;24.30;53.10;;;;;;5071047;28;19913;-56
2023/06/18 06:19:03;;;;;;;;;;;24.30;53.10;;;;;;5072047;28;20429;-55
2023/06/18 06:21:29;;;;;;;;;;;24.30;53.10;;;;;;5070292;28;19917;-56
2023/06/18 06:23:54;;;;;;;;;;;24.30;53.20;;;;;;5072137;28;19936;-56
2023/06/18 06:26:20;;;;;;;;;;;24.30;53.20;;;;;;5068093;28;19954;-55
2023/06/18 06:28:45;;;;;;;;;;;24.30;53.10;;;;;;5063540;28;19912;-55
2023/06/18 06:31:11;;;;;;;;;;;24.30;53.20;;;;;;5104781;28;19909;-55
2023/06/18 06:33:36;;;;;;;;;;;24.40;53.10;;;;;;5070415;28;19908;-56
2023/06/18 06:36:02;;;;;;;;;;;24.30;52.90;;;;;;5071796;28;19999;-55
2023/06/18 06:38:27;;;;;;;;;;;24.40;53.00;;;;;;5069616;28;19919;-56
2023/06/18 06:40:53;;;;;;;;;;;24.40;53.00;;;;;;5069539;28;20379;-55
2023/06/18 06:43:18;;;;;;;;;;;24.40;53.10;;;;;;5072814;28;20387;-55
2023/06/18 06:45:44;;;;;;;;;;;24.40;53.10;;;;;;5071612;28;19963;-55
2023/06/18 06:48:10;;;;;;;;;;;24.40;53.10;;;;;;5067705;28;20006;-55
2023/06/18 06:50:35;;;;;;;;;;;24.40;53.10;;;;;;5071497;28;20420;-56
2023/06/18 06:53:01;;;;;;;;;;;24.40;53.10;;;;;;5071813;28;19999;-55
2023/06/18 06:55:26;;;;;;;;;;;24.40;53.20;;;;;;5068357;28;19913;-55
2023/06/18 06:57:51;;;;;;;;;;;24.40;53.20;;;;;;5059312;28;19969;-56
2023/06/18 07:00:17;;;;;;;;;;;24.40;53.30;;;;;;5059369;28;19937;-55
2023/06/18 07:02:42;;;;;;;;;;;24.40;53.30;;;;;;5070596;28;19913;-56
2023/06/18 07:05:09;;;;;;;;;;;24.40;53.10;;;;;;5091854;28;19924;-56
2023/06/18 07:07:35;;;;;;;;;;;24.40;53.10;;;;;;5068264;28;19928;-56
2023/06/18 07:10:01;;;;;;;;;;;24.40;53.10;;;;;;5067718;28;19912;-55
2023/06/18 07:12:27;;;;;;;;;;;24.50;53.10;;;;;;5061394;28;19917;-56
2023/06/18 07:14:52;;;;;;;;;;;24.50;53.10;;;;;;5070450;28;19913;-55
2023/06/18 07:17:17;;;;;;;;;;;24.50;53.00;;;;;;5071313;28;19924;-56
2023/06/18 07:19:43;;;;;;;;;;;24.50;53.00;;;;;;5061364;28;19912;-56
2023/06/18 07:22:08;;;;;;;;;;;24.50;52.90;;;;;;5065497;28;19963;-56
2023/06/18 07:24:34;;;;;;;;;;;24.50;52.90;;;;;;5057151;28;19921;-55
2023/06/18 07:26:59;;;;;;;;;;;24.50;52.90;;;;;;5073977;28;20345;-56
2023/06/18 07:29:25;;;;;;;;;;;24.50;52.80;;;;;;5069386;28;20360;-56
2023/06/18 07:31:50;;;;;;;;;;;24.50;52.80;;;;;;5074155;28;19916;-56
2023/06/18 07:34:19;;;;;;;;;;;24.50;52.90;;;;;;5071420;28;20431;-56
2023/06/18 07:36:44;;;;;;;;;;;24.50;52.80;;;;;;5064709;28;19924;-56
2023/06/18 07:39:09;;;;;;;;;;;24.50;52.70;;;;;;5058921;28;19916;-55
2023/06/18 07:41:35;;;;;;;;;;;24.50;52.70;;;;;;5065327;28;19912;-56
2023/06/18 07:44:00;;;;;;;;;;;24.50;52.50;;;;;;5073649;28;19955;-56
2023/06/18 07:46:26;;;;;;;;;;;24.60;52.60;;;;;;5072648;28;19969;-56
2023/06/18 07:48:51;;;;;;;;;;;24.60;52.50;;;;;;5061045;28;19981;-56
2023/06/18 07:51:17;;;;;;;;;;;24.60;52.50;;;;;;5069118;28;19912;-57
2023/06/18 07:53:43;;;;;;;;;;;24.60;52.50;;;;;;5070706;28;19927;-56
2023/06/18 07:56:08;;;;;;;;;;;24.70;53.00;;;;;;5068118;28;19912;-57
2023/06/18 07:58:33;;;;;;;;;;;24.70;52.50;;;;;;5074436;28;20380;-56
2023/06/18 08:00:59;;;;;;;;;;;24.70;52.50;;;;;;5072754;28;19916;-56
2023/06/18 08:03:24;;;;;;;;;;;24.70;52.30;;;;;;5104427;28;19962;-57
2023/06/18 08:05:50;;;;;;;;;;;24.70;52.40;;;;;;5074018;28;19909;-56
2023/06/18 08:08:15;;;;;;;;;;;24.70;52.50;;;;;;5071126;28;19920;-56
2023/06/18 08:10:41;;;;;;;;;;;24.70;52.40;;;;;;5058186;28;19920;-56
2023/06/18 08:13:06;;;;;;;;;;;24.70;52.30;;;;;;5059026;28;19996;-56
2023/06/18 08:15:32;;;;;;;;;;;24.70;52.30;;;;;;5065101;28;19939;-56
2023/06/18 08:17:57;;;;;;;;;;;24.70;52.40;;;;;;5059224;28;20048;-56
2023/06/18 08:20:23;;;;;;;;;;;24.70;52.20;;;;;;5061544;28;19966;-56
2023/06/18 08:22:48;;;;;;;;;;;24.80;52.20;;;;;;5063436;28;20453;-56
2023/06/18 08:25:13;;;;;;;;;;;24.80;52.20;;;;;;5072041;28;19916;-56
2023/06/18 08:27:39;;;;;;;;;;;24.80;52.10;;;;;;5071385;28;19916;-56
2023/06/18 08:30:05;;;;;;;;;;;24.80;52.20;;;;;;5070096;28;19919;-57
2023/06/18 08:32:30;;;;;;;;;;;24.80;52.00;;;;;;5057160;28;19956;-55
2023/06/18 08:34:56;;;;;;;;;;;24.90;51.90;;;;;;5063848;28;19912;-55
2023/06/18 08:37:21;;;;;;;;;;;24.90;51.50;;;;;;5068923;28;20017;-56
2023/06/18 08:39:47;;;;;;;;;;;25.00;51.20;;;;;;5072732;28;19919;-56
2023/06/18 08:42:17;;;;;;;;;;;25.00;51.10;;;;;;5073280;28;20430;-56
2023/06/18 08:44:44;;;;;;;;;;;25.00;50.90;;;;;;5068319;28;19924;-56
2023/06/18 08:47:10;;;;;;;;;;;24.90;50.50;;;;;;5061505;28;20404;-56
2023/06/18 08:49:35;;;;;;;;;;;24.90;50.50;;;;;;5095963;28;19954;-56
2023/06/18 08:52:02;;;;;;;;;;;24.90;50.70;;;;;;5064467;28;19919;-56
2023/06/18 08:54:31;;;;;;;;;;;24.90;50.70;;;;;;5058650;28;19916;-56
2023/06/18 08:56:57;;;;;;;;;;;24.90;50.30;;;;;;5066483;28;19912;-56
2023/06/18 08:59:23;;;;;;;;;;;24.90;50.50;;;;;;5097820;28;20494;-57
2023/06/18 09:01:48;;;;;;;;;;;25.00;50.40;;;;;;5072434;28;19916;-56
2023/06/18 09:04:14;;;;;;;;;;;25.00;50.30;;;;;;5095806;28;19959;-57
2023/06/18 09:06:39;;;;;;;;;;;25.00;49.90;;;;;;5073558;28;19923;-55
2023/06/18 09:09:05;;;;;;;;;;;25.00;49.20;;;;;;5072331;28;19912;-55
2023/06/18 09:11:31;;;;;;;;;;;25.10;48.80;;;;;;5068360;28;19934;-55
2023/06/18 09:13:57;;;;;;;;;;;25.10;48.70;;;;;;5070069;28;19912;-55
2023/06/18 09:16:22;;;;;;;;;;;25.10;48.80;;;;;;5056868;28;19920;-55
2023/06/18 09:18:48;;;;;;;;;;;25.10;48.90;;;;;;5070652;28;19917;-54
2023/06/18 09:21:32;;;;;;;;;;;25.10;49.00;;;;;;5072621;28;19919;-55
2023/06/18 09:23:57;;;;;;;;;;;25.10;48.70;;;;;;5071775;28;19912;-55
2023/06/18 09:26:23;;;;;;;;;;;25.10;48.60;;;;;;5071897;28;19916;-54
2023/06/18 09:28:49;;;;;;;;;;;25.20;48.70;;;;;;5102841;28;19916;-55
2023/06/18 09:31:16;;;;;;;;;;;25.20;48.00;;;;;;5101972;28;20002;-55
2023/06/18 09:33:42;;;;;;;;;;;25.30;48.10;;;;;;5102457;28;20327;-55
2023/06/18 09:36:07;;;;;;;;;;;25.30;48.30;;;;;;5071845;28;19978;-55
2023/06/18 09:38:33;;;;;;;;;;;25.30;48.30;;;;;;5054900;28;19920;-55
2023/06/18 09:40:59;;;;;;;;;;;25.40;48.00;;;;;;5052340;28;20277;-54
2023/06/18 09:43:32;;;;;;;;;;;25.40;47.60;;;;;;5061342;28;20387;-56
2023/06/18 09:45:57;;;;;;;;;;;25.40;47.30;;;;;;5071122;28;20010;-56
2023/06/18 09:48:23;;;;;;;;;;;25.50;47.20;;;;;;5056641;28;20440;-56
2023/06/18 09:50:48;;;;;;;;;;;25.50;47.20;;;;;;5052247;28;20288;-55
2023/06/18 09:53:16;;;;;;;;;;;25.60;47.00;;;;;;5063565;28;19920;-55
2023/06/18 09:55:42;;;;;;;;;;;25.60;47.20;;;;;;5062459;28;19916;-56
2023/06/18 09:58:08;;;;;;;;;;;25.50;47.20;;;;;;5054466;28;20281;-56
2023/06/18 10:00:34;;;;;;;;;;;25.50;47.10;;;;;;5057806;28;20380;-56
2023/06/18 10:03:03;;;;;;;;;;;25.60;47.00;;;;;;5072197;28;19953;-56
2023/06/18 10:05:30;;;;;;;;;;;25.60;47.00;;;;;;5066249;28;19916;-56
2023/06/18 10:07:55;;;;;;;;;;;25.60;47.20;;;;;;5070149;28;19959;-56
2023/06/18 10:10:21;;;;;;;;;;;25.60;47.10;;;;;;5070157;28;19948;-56
2023/06/18 10:12:47;;;;;;;;;;;25.60;47.20;;;;;;5069406;28;19924;-56
2023/06/18 10:15:13;;;;;;;;;;;25.50;47.30;;;;;;5064649;28;20018;-57
2023/06/18 10:17:43;;;;;;;;;;;25.50;47.40;;;;;;5087967;28;19939;-56
2023/06/18 10:20:09;;;;;;;;;;;25.60;47.60;;;;;;5061679;28;20314;-56
2023/06/18 10:22:37;;;;;;;;;;;25.60;47.70;;;;;;5086011;28;19917;-56
2023/06/18 10:25:03;;;;;;;;;;;25.70;47.60;;;;;;5070198;28;19920;-56
2023/06/18 10:27:28;;;;;;;;;;;25.70;48.40;;;;;;5054068;28;20257;-56
2023/06/18 10:29:57;;;;;;;;;;;25.70;47.60;;;;;;5065365;28;19973;-56
2023/06/18 10:32:22;;;;;;;;;;;25.80;47.20;;;;;;5060182;28;19919;-56
2023/06/18 10:34:48;;;;;;;;;;;25.80;47.10;;;;;;5051699;28;20366;-56
2023/06/18 10:37:13;;;;;;;;;;;25.80;47.00;;;;;;5069943;28;19955;-56
2023/06/18 10:39:39;;;;;;;;;;;25.80;47.00;;;;;;5055115;28;20400;-56
2023/06/18 10:42:14;;;;;;;;;;;25.80;47.30;;;;;;5060750;28;19916;-56
2023/06/18 10:44:58;;;;;;;;;;;25.80;47.50;;;;;;5070337;28;20426;-56
2023/06/18 10:47:30;;;;;;;;;;;25.80;47.70;;;;;;5074645;28;19951;-55
2023/06/18 10:50:02;;;;;;;;;;;25.80;46.80;;;;;;5062467;28;20368;-55
2023/06/18 10:52:31;;;;;;;;;;;25.80;46.80;;;;;;5071047;28;20010;-56
2023/06/18 10:55:06;;;;;;;;;;;25.90;47.20;;;;;;5057162;28;20284;-56
2023/06/18 10:57:34;;;;;;;;;;;25.90;47.20;;;;;;5058493;28;19928;-55
2023/06/18 11:00:03;;;;;;;;;;;25.90;47.00;;;;;;5070680;28;19969;-55
2023/06/18 11:02:31;;;;;;;;;;;26.00;46.70;;;;;;5097486;28;19924;-55
2023/06/18 11:04:57;;;;;;;;;;;26.00;46.00;;;;;;5055694;28;20274;-56
2023/06/18 11:07:27;;;;;;;;;;;26.10;45.60;;;;;;5067202;28;19920;-56
2023/06/18 11:09:57;;;;;;;;;;;26.30;45.20;;;;;;5073668;28;19966;-55
2023/06/18 11:12:24;;;;;;;;;;;26.30;45.60;;;;;;5069540;28;19959;-56
2023/06/18 11:15:08;;;;;;;;;;;26.20;45.50;;;;;;5069554;28;20007;-55
2023/06/18 11:17:34;;;;;;;;;;;26.20;45.20;;;;;;5074842;28;19935;-55
2023/06/18 11:19:59;;;;;;;;;;;26.30;45.30;;;;;;5073167;28;19912;-55
2023/06/18 11:22:26;;;;;;;;;;;26.20;45.70;;;;;;5073105;28;20285;-56
2023/06/18 11:24:51;;;;;;;;;;;26.20;45.40;;;;;;5071481;28;19938;-56
2023/06/18 11:27:18;;;;;;;;;;;26.20;45.60;;;;;;5071754;28;19916;-55
2023/06/18 11:29:44;;;;;;;;;;;26.20;45.80;;;;;;5084551;28;20026;-56
2023/06/18 11:32:12;;;;;;;;;;;26.20;45.70;;;;;;5076080;28;19991;-56
2023/06/18 11:34:41;;;;;;;;;;;26.10;45.50;;;;;;5079279;28;19923;-56
2023/06/18 11:37:07;;;;;;;;;;;26.10;45.40;;;;;;5090834;28;19917;-55
2023/06/18 11:39:33;;;;;;;;;;;26.10;45.00;;;;;;5053850;28;19915;-55
2023/06/18 11:42:12;;;;;;;;;;;26.20;45.00;;;;;;5055261;28;19913;-56
2023/06/18 11:44:47;;;;;;;;;;;26.20;44.60;;;;;;5060722;28;20058;-55
2023/06/18 11:47:13;;;;;;;;;;;26.20;44.60;;;;;;5074019;28;19919;-55
2023/06/18 11:49:44;;;;;;;;;;;26.20;44.40;;;;;;5072963;28;19912;-56
2023/06/18 11:52:10;;;;;;;;;;;26.20;44.00;;;;;;5074809;28;19936;-56
2023/06/18 11:54:39;;;;;;;;;;;26.30;44.20;;;;;;5089525;28;19916;-56
2023/06/18 11:57:05;;;;;;;;;;;26.40;44.00;;;;;;5073294;28;19917;-55
2023/06/18 11:59:31;;;;;;;;;;;26.30;43.80;;;;;;5072547;28;19919;-55
2023/06/18 12:02:06;;;;;;;;;;;26.40;43.60;;;;;;5069601;28;20291;-55
2023/06/18 12:04:32;;;;;;;;;;;26.40;43.30;;;;;;5089960;28;20475;-54
2023/06/18 12:06:57;;;;;;;;;;;26.40;43.90;;;;;;5074347;28;19999;-55
2023/06/18 12:09:23;;;;;;;;;;;26.30;43.10;;;;;;5073664;28;19912;-55
2023/06/18 12:11:51;;;;;;;;;;;26.30;43.30;;;;;;5068561;28;20361;-55
2023/06/18 12:14:30;;;;;;;;;;;26.40;43.90;;;;;;5073167;28;20003;-54
2023/06/18 12:16:56;;;;;;;;;;;26.50;43.00;;;;;;5107034;28;19917;-52
2023/06/18 12:19:21;;;;;;;;;;;26.50;42.70;;;;;;5106584;28;19913;-55
2023/06/18 12:21:47;;;;;;;;;;;26.50;42.70;;;;;;5106891;28;19916;-55
2023/06/18 12:24:12;;;;;;;;;;;26.60;42.70;;;;;;5066526;28;20011;-53
2023/06/18 12:26:37;;;;;;;;;;;26.60;42.20;;;;;;5065080;28;19940;-53
2023/06/18 12:29:04;;;;;;;;;;;26.60;42.30;;;;;;5074152;28;19952;-52
2023/06/18 12:31:30;;;;;;;;;;;26.60;42.00;;;;;;5073673;28;19958;-53
2023/06/18 12:33:55;;;;;;;;;;;26.70;41.90;;;;;;5073941;28;19913;-53
2023/06/18 12:36:27;;;;;;;;;;;26.70;42.10;;;;;;5072525;28;20311;-55
2023/06/18 12:38:53;;;;;;;;;;;26.70;41.80;;;;;;5073871;28;19956;-53
2023/06/18 12:41:29;;;;;;;;;;;26.70;41.30;;;;;;5058054;28;20456;-53
2023/06/18 12:43:55;;;;;;;;;;;26.80;41.10;;;;;;5073560;28;19982;-52
2023/06/18 12:46:26;;;;;;;;;;;26.90;40.90;;;;;;5073600;28;19908;-53
2023/06/18 12:48:52;;;;;;;;;;;26.90;40.80;;;;;;5068358;28;20327;-53
2023/06/18 12:51:17;;;;;;;;;;;26.90;40.80;;;;;;5104918;28;19913;-53
2023/06/18 12:53:43;;;;;;;;;;;26.90;41.20;;;;;;5073772;28;19908;-53
2023/06/18 12:56:15;;;;;;;;;;;26.90;41.00;;;;;;5068943;28;19917;-53
2023/06/18 12:58:42;;;;;;;;;;;26.90;39.80;;;;;;5070408;28;19942;-53
2023/06/18 13:01:08;;;;;;;;;;;27.00;40.90;;;;;;5072450;28;19918;-53
2023/06/18 13:03:33;;;;;;;;;;;27.10;39.60;;;;;;5073521;28;20403;-53
2023/06/18 13:05:59;;;;;;;;;;;27.10;39.60;;;;;;5060206;28;19951;-53
2023/06/18 13:08:25;;;;;;;;;;;27.00;39.30;;;;;;5069778;28;19927;-53
2023/06/18 13:10:51;;;;;;;;;;;27.00;39.70;;;;;;5070793;28;19913;-53
2023/06/18 13:13:17;;;;;;;;;;;27.00;39.70;;;;;;5073281;28;19909;-53
2023/06/18 13:15:42;;;;;;;;;;;27.10;39.40;;;;;;5072227;28;19916;-53
2023/06/18 13:18:08;;;;;;;;;;;27.10;39.40;;;;;;5070161;28;20042;-54
2023/06/18 13:20:34;;;;;;;;;;;27.10;40.10;;;;;;5061996;28;19917;-53
2023/06/18 13:22:59;;;;;;;;;;;27.00;40.60;;;;;;5053698;28;19913;-53
2023/06/18 13:25:25;;;;;;;;;;;27.00;40.60;;;;;;5052681;28;19924;-52
2023/06/18 13:27:50;;;;;;;;;;;27.10;40.40;;;;;;5053692;28;19908;-53
2023/06/18 13:30:16;;;;;;;;;;;27.10;39.80;;;;;;5055867;28;19913;-53
2023/06/18 13:32:41;;;;;;;;;;;27.20;39.60;;;;;;5073244;28;19908;-53
2023/06/18 13:35:07;;;;;;;;;;;27.10;39.40;;;;;;5072676;28;20360;-53
2023/06/18 13:37:32;;;;;;;;;;;27.20;39.00;;;;;;5059948;28;20297;-53
2023/06/18 13:39:58;;;;;;;;;;;27.20;39.50;;;;;;5052332;28;20359;-53
2023/06/18 13:42:24;;;;;;;;;;;27.20;39.60;;;;;;5053250;28;20327;-53
2023/06/18 13:44:49;;;;;;;;;;;27.30;39.10;;;;;;5065763;28;19921;-53
2023/06/18 13:47:15;;;;;;;;;;;27.40;39.10;;;;;;5072959;28;20291;-53
2023/06/18 13:49:40;;;;;;;;;;;27.40;39.40;;;;;;5069730;28;19920;-53
2023/06/18 13:52:06;;;;;;;;;;;27.50;39.00;;;;;;5072546;28;20276;-53
2023/06/18 13:54:31;;;;;;;;;;;27.40;39.10;;;;;;5063462;28;20289;-53
2023/06/18 13:56:57;;;;;;;;;;;27.40;39.30;;;;;;5059963;28;19920;-53
2023/06/18 13:59:22;;;;;;;;;;;27.50;39.50;;;;;;5067274;28;19928;-52
2023/06/18 14:01:48;;;;;;;;;;;27.50;39.90;;;;;;5063525;28;20392;-53
2023/06/18 14:04:14;;;;;;;;;;;27.40;40.00;;;;;;5068829;28;19916;-53
2023/06/18 14:06:39;;;;;;;;;;;27.40;40.30;;;;;;5060417;28;19939;-53
2023/06/18 14:09:05;;;;;;;;;;;27.40;40.40;;;;;;5072191;28;19960;-53
2023/06/18 14:11:31;;;;;;;;;;;27.40;40.10;;;;;;5071359;28;19916;-53